createdAt,value
2023-02-19T00:01:30.020Z,19.17
2023-02-19T00:04:02.519Z,20.77
2023-02-19T00:06:31.079Z,18.95
2023-02-19T00:08:57.761Z,19.35
2023-02-19T00:11:27.774Z,18.75
2023-02-19T00:13:57.383Z,19.75
2023-02-19T00:16:31.779Z,17.10
2023-02-19T00:19:00.169Z,16.27
2023-02-19T00:21:27.404Z,18.10
2023-02-19T00:23:56.476Z,15.80
2023-02-19T00:26:23.265Z,16.15
2023-02-19T00:28:51.409Z,16.08
2023-02-19T00:31:24.206Z,14.20
2023-02-19T00:33:53.964Z,12.63
2023-02-19T00:36:20.795Z,14.40
2023-02-19T00:38:48.189Z,11.43
2023-02-19T00:41:19.081Z,11.82
2023-02-19T00:43:57.282Z,10.80
2023-02-19T00:46:35.902Z,13.05
2023-02-19T00:49:02.855Z,11.88
2023-02-19T00:51:32.039Z,12.98
2023-02-19T00:53:58.814Z,10.90
2023-02-19T00:56:25.433Z,14.25
2023-02-19T00:58:51.970Z,12.23
2023-02-19T01:01:19.324Z,13.13
2023-02-19T01:03:46.887Z,13.65
2023-02-19T01:06:15.741Z,10.77
2023-02-19T01:08:42.406Z,9.50
2023-02-19T01:11:11.672Z,9.95
2023-02-19T01:13:38.661Z,12.30
2023-02-19T01:16:10.570Z,12.55
2023-02-19T01:18:37.192Z,11.70
2023-02-19T01:21:13.440Z,13.63
2023-02-19T01:23:40.355Z,14.85
2023-02-19T01:26:09.238Z,13.68
2023-02-19T01:28:36.590Z,16.17
2023-02-19T01:31:05.532Z,16.02
2023-02-19T01:33:33.215Z,19.33
2023-02-19T01:36:00.221Z,19.27
2023-02-19T01:38:27.620Z,14.32
2023-02-19T01:40:58.432Z,20.20
2023-02-19T01:43:25.045Z,15.05
2023-02-19T01:45:51.769Z,19.35
2023-02-19T01:48:23.072Z,20.30
2023-02-19T01:51:02.915Z,15.65
2023-02-19T01:53:33.512Z,18.30
2023-02-19T01:56:02.270Z,19.02
2023-02-19T01:58:33.954Z,19.67
2023-02-19T02:01:03.049Z,20.08
2023-02-19T02:03:31.354Z,19.85
2023-02-19T02:06:03.784Z,18.83
2023-02-19T02:08:50.266Z,21.25
2023-02-19T02:11:17.730Z,19.27
2023-02-19T02:13:44.765Z,20.05
2023-02-19T02:16:30.289Z,24.67
2023-02-19T02:19:17.994Z,18.60
2023-02-19T02:22:02.913Z,27.83
2023-02-19T02:25:00.591Z,24.55
2023-02-19T02:28:04.232Z,21.05
2023-02-19T02:30:46.317Z,28.55
2023-02-19T02:33:21.777Z,21.92
2023-02-19T02:35:53.128Z,30.55
2023-02-19T02:38:23.706Z,24.40
2023-02-19T02:40:51.231Z,25.80
2023-02-19T02:43:17.868Z,22.90
2023-02-19T02:45:44.434Z,25.30
2023-02-19T02:48:19.747Z,25.05
2023-02-19T02:50:54.524Z,22.80
2023-02-19T02:53:46.221Z,25.13
2023-02-19T02:56:15.532Z,22.77
2023-02-19T02:58:43.388Z,22.35
2023-02-19T03:01:43.300Z,23.70
2023-02-19T03:04:15.618Z,26.38
2023-02-19T03:06:44.588Z,25.30
2023-02-19T03:09:30.198Z,26.38
2023-02-19T03:12:19.114Z,25.35
2023-02-19T03:15:17.082Z,22.90
2023-02-19T03:18:07.317Z,22.38
2023-02-19T03:20:36.624Z,24.20
2023-02-19T03:23:05.156Z,20.75
2023-02-19T03:25:54.471Z,21.02
2023-02-19T03:28:45.211Z,23.33
2023-02-19T03:31:17.045Z,23.50
2023-02-19T03:33:47.355Z,26.27
2023-02-19T03:36:18.914Z,21.05
2023-02-19T03:38:56.823Z,23.15
2023-02-19T03:41:23.292Z,21.92
2023-02-19T03:43:49.683Z,22.58
2023-02-19T03:46:25.683Z,17.38
2023-02-19T03:49:10.491Z,19.50
2023-02-19T03:51:44.136Z,18.38
2023-02-19T03:54:35.254Z,20.20
2023-02-19T03:57:11.826Z,17.23
2023-02-19T03:59:52.449Z,18.70
2023-02-19T04:03:06.045Z,14.73
2023-02-19T04:05:37.303Z,12.75
2023-02-19T04:08:14.082Z,11.55
2023-02-19T04:10:41.756Z,15.00
2023-02-19T04:13:26.434Z,11.70
2023-02-19T04:15:56.938Z,14.45
2023-02-19T04:18:29.127Z,14.20
2023-02-19T04:20:57.568Z,12.87
2023-02-19T04:23:28.932Z,11.95
2023-02-19T04:25:59.554Z,13.23
2023-02-19T04:28:26.130Z,11.23
2023-02-19T04:30:52.814Z,9.63
2023-02-19T04:33:19.352Z,8.98
2023-02-19T04:35:45.776Z,13.35
2023-02-19T04:38:13.824Z,13.80
2023-02-19T04:40:40.375Z,9.43
2023-02-19T04:43:06.945Z,7.93
2023-02-19T04:45:33.581Z,10.30
2023-02-19T04:48:00.215Z,7.78
2023-02-19T04:50:26.689Z,10.55
2023-02-19T04:52:53.318Z,13.10
2023-02-19T04:55:19.810Z,9.90
2023-02-19T04:57:46.247Z,9.90
2023-02-19T05:00:13.490Z,8.32
2023-02-19T05:02:39.969Z,9.77
2023-02-19T05:05:06.591Z,6.45
2023-02-19T05:07:33.732Z,9.20
2023-02-19T05:10:00.158Z,9.52
2023-02-19T05:12:26.833Z,10.30
2023-02-19T05:14:53.504Z,7.47
2023-02-19T05:17:20.065Z,8.07
2023-02-19T05:19:46.529Z,6.85
2023-02-19T05:22:12.963Z,7.25
2023-02-19T05:24:39.509Z,6.60
2023-02-19T05:27:06.004Z,11.48
2023-02-19T05:29:32.540Z,8.30
2023-02-19T05:32:05.422Z,7.18
2023-02-19T05:34:32.083Z,10.43
2023-02-19T05:36:58.632Z,9.50
2023-02-19T05:39:25.141Z,8.30
2023-02-19T05:41:51.653Z,11.15
2023-02-19T05:44:18.111Z,8.55
2023-02-19T05:46:44.660Z,8.20
2023-02-19T05:49:11.054Z,9.07
2023-02-19T05:51:37.595Z,8.18
2023-02-19T05:54:04.178Z,9.82
2023-02-19T05:56:38.972Z,10.57
2023-02-19T05:59:17.945Z,13.05
2023-02-19T06:01:44.982Z,9.00
2023-02-19T06:04:12.386Z,5.63
2023-02-19T06:06:39.184Z,2.70
2023-02-19T06:09:06.853Z,2.97
2023-02-19T06:11:34.070Z,1.98
2023-02-19T06:14:00.875Z,2.15
2023-02-19T06:16:27.635Z,3.28
2023-02-19T06:18:54.184Z,2.20
2023-02-19T06:21:20.739Z,2.80
2023-02-19T06:23:47.409Z,2.20
2023-02-19T06:26:20.910Z,2.38
2023-02-19T06:28:49.288Z,2.22
2023-02-19T06:31:17.360Z,2.28
2023-02-19T06:33:44.133Z,2.55
2023-02-19T06:36:16.355Z,2.30
2023-02-19T06:38:42.974Z,2.10
2023-02-19T06:41:11.165Z,2.20
2023-02-19T06:43:38.208Z,1.80
2023-02-19T06:46:06.719Z,2.13
2023-02-19T06:48:33.978Z,2.30
2023-02-19T06:51:00.504Z,2.20
2023-02-19T06:53:27.584Z,2.72
2023-02-19T06:55:57.773Z,2.85
2023-02-19T06:58:24.610Z,3.10
2023-02-19T07:00:51.189Z,2.72
2023-02-19T07:03:17.715Z,3.00
2023-02-19T07:05:44.224Z,2.90
2023-02-19T07:08:10.766Z,2.88
2023-02-19T07:10:37.331Z,3.00
2023-02-19T07:13:04.072Z,3.20
2023-02-19T07:15:30.607Z,4.75
2023-02-19T07:17:57.018Z,3.17
2023-02-19T07:20:23.539Z,3.00
2023-02-19T07:22:50.418Z,2.92
2023-02-19T07:25:17.215Z,3.22
2023-02-19T07:27:43.643Z,3.80
2023-02-19T07:30:10.930Z,2.97
2023-02-19T07:32:41.281Z,3.35
2023-02-19T07:35:08.008Z,3.92
2023-02-19T07:37:34.604Z,3.47
2023-02-19T07:40:01.308Z,3.40
2023-02-19T07:42:27.937Z,5.03
2023-02-19T07:44:54.515Z,3.80
2023-02-19T07:47:20.950Z,3.70
2023-02-19T07:49:47.374Z,3.88
2023-02-19T07:52:13.878Z,4.20
2023-02-19T07:54:40.348Z,4.18
2023-02-19T07:57:06.884Z,4.72
2023-02-19T07:59:34.927Z,5.05
2023-02-19T08:02:19.690Z,4.90
2023-02-19T08:04:48.037Z,5.57
2023-02-19T08:07:14.466Z,4.05
2023-02-19T08:09:40.926Z,5.55
2023-02-19T08:12:29.373Z,3.75
2023-02-19T08:14:55.884Z,6.28
2023-02-19T08:17:22.420Z,3.97
2023-02-19T08:19:48.967Z,4.72
2023-02-19T08:22:16.295Z,4.93
2023-02-19T08:24:45.048Z,5.53
2023-02-19T08:27:11.588Z,5.53
2023-02-19T08:29:38.005Z,5.00
2023-02-19T08:32:04.699Z,5.05
2023-02-19T08:34:31.212Z,3.67
2023-02-19T08:36:57.762Z,4.95
2023-02-19T08:39:24.319Z,4.45
2023-02-19T08:41:50.930Z,3.28
2023-02-19T08:44:18.069Z,4.78
2023-02-19T08:46:44.440Z,3.53
2023-02-19T08:49:10.929Z,4.03
2023-02-19T08:51:37.408Z,3.03
2023-02-19T08:54:04.325Z,3.35
2023-02-19T08:56:30.856Z,2.88
2023-02-19T08:58:57.400Z,3.67
2023-02-19T09:01:23.982Z,3.20
2023-02-19T09:03:50.708Z,3.55
2023-02-19T09:06:19.006Z,3.10
2023-02-19T09:08:45.501Z,3.17
2023-02-19T09:11:12.778Z,3.28
2023-02-19T09:13:39.483Z,2.55
2023-02-19T09:16:06.366Z,2.95
2023-02-19T09:18:33.019Z,4.30
2023-02-19T09:21:05.077Z,3.45
2023-02-19T09:23:36.331Z,2.90
2023-02-19T09:26:06.758Z,3.72
2023-02-19T09:28:33.388Z,3.42
2023-02-19T09:31:12.013Z,3.58
2023-02-19T09:33:42.199Z,6.10
2023-02-19T09:36:09.025Z,4.90
2023-02-19T09:38:35.477Z,4.20
2023-02-19T09:41:14.460Z,5.28
2023-02-19T09:43:42.894Z,5.72
2023-02-19T09:46:32.555Z,6.20
2023-02-19T09:49:08.045Z,5.60
2023-02-19T09:51:37.956Z,5.68
2023-02-19T09:54:07.839Z,5.90
2023-02-19T09:56:34.668Z,5.80
2023-02-19T09:59:01.696Z,6.45
2023-02-19T10:01:32.818Z,6.13
2023-02-19T10:03:59.625Z,7.50
2023-02-19T10:06:29.849Z,6.90
2023-02-19T10:09:11.467Z,6.97
2023-02-19T10:11:38.434Z,7.00
2023-02-19T10:14:09.510Z,7.07
2023-02-19T10:16:40.838Z,7.47
2023-02-19T10:19:12.397Z,7.68
2023-02-19T10:21:39.954Z,6.88
2023-02-19T10:24:08.242Z,7.88
2023-02-19T10:26:36.737Z,8.52
2023-02-19T10:29:05.150Z,7.32
2023-02-19T10:31:33.407Z,6.68
2023-02-19T10:34:01.974Z,7.68
2023-02-19T10:36:42.783Z,8.18
2023-02-19T10:39:43.931Z,7.03
2023-02-19T10:42:22.035Z,7.85
2023-02-19T10:44:58.843Z,7.45
2023-02-19T10:47:27.210Z,5.53
2023-02-19T10:49:59.450Z,6.85
2023-02-19T10:52:30.191Z,6.72
2023-02-19T10:55:18.390Z,7.43
2023-02-19T10:57:46.884Z,6.50
2023-02-19T11:03:23.950Z,5.50
2023-02-19T11:05:56.318Z,6.23
2023-02-19T11:08:24.311Z,6.18
2023-02-19T11:10:51.169Z,4.93
2023-02-19T11:13:32.210Z,6.50
2023-02-19T11:15:59.894Z,6.93
2023-02-19T11:18:30.276Z,7.45
2023-02-19T11:20:58.288Z,8.18
2023-02-19T11:23:34.393Z,8.95
2023-02-19T11:26:05.082Z,6.45
2023-02-19T11:28:35.066Z,9.23
2023-02-19T11:31:20.133Z,5.00
2023-02-19T11:34:14.660Z,4.45
2023-02-19T11:36:42.791Z,5.10
2023-02-19T11:39:15.083Z,5.47
2023-02-19T11:42:01.396Z,4.13
2023-02-19T11:44:46.594Z,3.80
2023-02-19T11:47:34.821Z,4.10
2023-02-19T11:50:21.087Z,4.93
2023-02-19T11:53:00.103Z,3.95
2023-02-19T11:55:32.652Z,4.18
2023-02-19T11:58:13.658Z,4.53
2023-02-19T12:01:05.221Z,3.17
2023-02-19T12:03:55.830Z,2.97
2023-02-19T12:06:48.479Z,3.38
2023-02-19T12:09:43.219Z,3.95
2023-02-19T12:12:36.155Z,4.20
2023-02-19T12:15:09.428Z,3.45
2023-02-19T12:17:51.195Z,3.67
2023-02-19T12:20:27.082Z,4.10
2023-02-19T12:23:08.645Z,4.28
2023-02-19T12:25:57.774Z,2.38
2023-02-19T12:28:42.936Z,2.42
2023-02-19T12:31:40.552Z,2.63
2023-02-19T12:34:19.327Z,3.25
2023-02-19T12:36:56.222Z,3.42
2023-02-19T12:39:49.991Z,2.70
2023-02-19T12:43:04.036Z,3.28
2023-02-19T12:45:36.414Z,2.97
2023-02-19T12:48:20.518Z,3.72
2023-02-19T12:50:51.356Z,3.53
2023-02-19T12:53:20.973Z,3.40
2023-02-19T12:55:48.335Z,4.25
2023-02-19T12:58:27.392Z,3.70
2023-02-19T13:00:59.139Z,3.78
2023-02-19T13:03:30.687Z,3.85
2023-02-19T13:06:21.313Z,3.65
2023-02-19T13:09:06.388Z,5.75
2023-02-19T13:11:56.440Z,3.17
2023-02-19T13:14:34.757Z,4.13
2023-02-19T13:17:09.415Z,2.92
2023-02-19T13:19:37.896Z,4.22
2023-02-19T13:22:40.869Z,2.47
2023-02-19T13:25:10.149Z,2.53
2023-02-19T13:27:48.969Z,2.70
2023-02-19T13:31:07.750Z,2.40
2023-02-19T13:33:44.807Z,2.40
2023-02-19T13:36:21.539Z,3.47
2023-02-19T13:38:50.049Z,2.00
2023-02-19T13:41:31.181Z,2.15
2023-02-19T13:44:03.677Z,2.35
2023-02-19T13:46:37.818Z,2.50
2023-02-19T13:49:22.873Z,1.98
2023-02-19T13:51:55.004Z,1.85
2023-02-19T13:54:29.018Z,2.03
2023-02-19T13:57:23.414Z,2.17
2023-02-19T13:59:51.804Z,1.70
2023-02-19T14:02:21.328Z,3.72
2023-02-19T14:04:55.538Z,3.55
2023-02-19T14:07:35.256Z,1.98
2023-02-19T14:10:03.050Z,2.60
2023-02-19T14:12:35.164Z,2.15
2023-02-19T14:15:39.042Z,3.33
2023-02-19T14:18:42.537Z,2.63
2023-02-19T14:21:39.833Z,2.72
2023-02-19T14:24:13.426Z,1.55
2023-02-19T14:26:41.270Z,2.15
2023-02-19T14:29:10.619Z,2.30
2023-02-19T14:31:38.434Z,2.75
2023-02-19T14:34:13.634Z,3.00
2023-02-19T14:37:01.074Z,2.55
2023-02-19T14:39:31.173Z,2.03
2023-02-19T14:42:01.021Z,3.03
2023-02-19T14:44:33.951Z,4.13
2023-02-19T14:47:09.573Z,1.40
2023-02-19T14:49:47.297Z,1.95
2023-02-19T14:52:22.030Z,1.80
2023-02-19T14:54:50.898Z,1.35
2023-02-19T14:57:23.504Z,1.50
2023-02-19T15:00:22.512Z,3.28
2023-02-19T15:02:53.529Z,3.20
2023-02-19T15:05:26.109Z,2.58
2023-02-19T15:07:55.306Z,1.40
2023-02-19T15:10:22.565Z,2.42
2023-02-19T15:12:55.536Z,3.47
2023-02-19T15:17:50.984Z,2.08
2023-02-19T15:20:24.554Z,1.15
2023-02-19T15:22:52.882Z,1.75
2023-02-19T15:25:22.259Z,2.58
2023-02-19T15:27:49.082Z,1.25
2023-02-19T15:30:27.470Z,2.42
2023-02-19T15:32:59.527Z,1.75
2023-02-19T15:35:28.755Z,1.40
2023-02-19T15:37:55.682Z,2.10
2023-02-19T15:40:29.381Z,2.13
2023-02-19T15:42:56.378Z,2.13
2023-02-19T15:45:37.657Z,2.33
2023-02-19T15:48:10.609Z,3.20
2023-02-19T15:50:44.045Z,1.55
2023-02-19T15:53:18.812Z,2.72
2023-02-19T15:56:07.561Z,1.88
2023-02-19T15:58:45.682Z,2.65
2023-02-19T16:01:15.810Z,1.65
2023-02-19T16:03:42.886Z,2.20
2023-02-19T16:06:14.981Z,2.72
2023-02-19T16:09:01.963Z,2.87
2023-02-19T16:11:37.018Z,3.05
2023-02-19T16:14:37.115Z,3.65
2023-02-19T16:17:22.033Z,2.50
2023-02-19T16:19:56.831Z,2.25
2023-02-19T16:22:26.648Z,3.03
2023-02-19T16:25:00.887Z,2.95
2023-02-19T16:27:34.132Z,2.65
2023-02-19T16:30:10.344Z,2.40
2023-02-19T16:32:37.047Z,2.55
2023-02-19T16:35:04.929Z,2.90
2023-02-19T16:37:56.030Z,3.38
2023-02-19T16:40:45.521Z,3.08
2023-02-19T16:43:15.087Z,2.80
2023-02-19T16:45:42.267Z,5.22
2023-02-19T16:48:10.255Z,2.35
2023-02-19T16:50:37.116Z,2.83
2023-02-19T16:53:04.239Z,3.25
2023-02-19T16:55:32.571Z,3.33
2023-02-19T16:57:59.075Z,3.70
2023-02-19T17:02:58.525Z,3.40
2023-02-19T17:05:28.422Z,4.18
2023-02-19T17:07:55.291Z,6.93
2023-02-19T17:10:25.421Z,5.18
2023-02-19T17:12:53.623Z,6.18
2023-02-19T17:15:20.464Z,4.95
2023-02-19T17:17:47.945Z,5.38
2023-02-19T17:20:17.266Z,5.97
2023-02-19T17:22:44.421Z,5.95
2023-02-19T17:25:11.020Z,6.93
2023-02-19T17:27:37.487Z,7.93
2023-02-19T17:30:09.927Z,8.98
2023-02-19T17:32:36.490Z,8.38
2023-02-19T17:35:03.162Z,8.05
2023-02-19T17:37:29.632Z,10.13
2023-02-19T17:39:56.159Z,11.80
2023-02-19T17:42:23.550Z,11.27
2023-02-19T17:44:51.879Z,12.07
2023-02-19T17:47:18.514Z,11.70
2023-02-19T17:49:44.984Z,12.35
2023-02-19T17:52:13.580Z,12.68
2023-02-19T17:54:40.193Z,13.57
2023-02-19T17:57:06.661Z,14.80
2023-02-19T17:59:33.128Z,13.02
2023-02-19T18:01:59.665Z,12.65
2023-02-19T18:04:26.093Z,13.40
2023-02-19T18:06:53.959Z,13.63
2023-02-19T18:09:22.386Z,12.68
2023-02-19T18:11:49.314Z,13.13
2023-02-19T18:14:15.862Z,13.52
2023-02-19T18:16:49.985Z,12.48
2023-02-19T18:19:17.317Z,11.48
2023-02-19T18:21:44.085Z,13.02
2023-02-19T18:24:10.679Z,15.95
2023-02-19T18:26:37.205Z,12.20
2023-02-19T18:29:05.505Z,12.07
2023-02-19T18:31:37.308Z,11.88
2023-02-19T18:34:04.930Z,11.65
2023-02-19T18:36:33.543Z,11.63
2023-02-19T18:39:00.054Z,12.45
2023-02-19T18:41:26.660Z,12.23
2023-02-19T18:43:53.216Z,11.10
2023-02-19T18:46:21.272Z,11.00
2023-02-19T18:48:47.926Z,11.77
2023-02-19T18:51:14.582Z,11.05
2023-02-19T18:53:42.860Z,11.07
2023-02-19T18:56:09.379Z,12.05
2023-02-19T18:58:36.058Z,10.45
2023-02-19T19:01:02.723Z,10.15
2023-02-19T19:03:30.840Z,9.20
2023-02-19T19:05:57.616Z,11.32
2023-02-19T19:08:24.512Z,7.80
2023-02-19T19:10:51.031Z,8.40
2023-02-19T19:13:17.583Z,7.35
2023-02-19T19:15:49.867Z,6.43
2023-02-19T19:18:16.460Z,6.63
2023-02-19T19:20:42.965Z,7.50
2023-02-19T19:23:09.409Z,5.47
2023-02-19T19:25:36.048Z,8.15
2023-02-19T19:28:02.558Z,6.38
2023-02-19T19:30:29.180Z,5.93
2023-02-19T19:32:55.850Z,5.13
2023-02-19T19:35:22.726Z,6.85
2023-02-19T19:37:49.566Z,4.85
2023-02-19T19:40:17.856Z,5.85
2023-02-19T19:42:44.744Z,7.30
2023-02-19T19:45:12.435Z,4.75
2023-02-19T19:47:39.604Z,5.63
2023-02-19T19:50:06.324Z,5.97
2023-02-19T19:52:32.804Z,6.03
2023-02-19T19:54:59.302Z,4.28
2023-02-19T19:57:25.819Z,5.00
2023-02-19T19:59:52.505Z,4.63
2023-02-19T20:02:19.761Z,6.03
2023-02-19T20:04:46.301Z,5.32
2023-02-19T20:07:12.745Z,4.57
2023-02-19T20:09:39.339Z,5.55
2023-02-19T20:12:06.572Z,6.63
2023-02-19T20:14:33.852Z,5.93
2023-02-19T20:17:01.470Z,5.15
2023-02-19T20:19:27.997Z,7.47
2023-02-19T20:21:54.712Z,5.72
2023-02-19T20:24:24.904Z,5.15
2023-02-19T20:26:58.521Z,6.20
2023-02-19T20:29:30.161Z,5.72
2023-02-19T20:31:59.792Z,4.20
2023-02-19T20:34:26.965Z,7.60
2023-02-19T20:36:53.865Z,4.13
2023-02-19T20:39:22.211Z,3.53
2023-02-19T20:41:51.539Z,4.68
2023-02-19T20:44:19.311Z,5.05
2023-02-19T20:46:49.300Z,4.60
2023-02-19T20:49:17.811Z,4.88
2023-02-19T20:51:50.083Z,4.53
2023-02-19T20:54:17.371Z,3.38
2023-02-19T20:56:48.420Z,3.00
2023-02-19T20:59:16.253Z,3.83
2023-02-19T21:01:43.303Z,3.72
2023-02-19T21:04:10.082Z,2.30
2023-02-19T21:06:36.893Z,2.90
2023-02-19T21:09:04.853Z,3.58
2023-02-19T21:11:31.849Z,5.65
2023-02-19T21:13:59.347Z,3.95
2023-02-19T21:16:27.112Z,2.88
2023-02-19T21:18:54.142Z,4.80
2023-02-19T21:21:25.275Z,2.88
2023-02-19T21:23:57.112Z,3.15
2023-02-19T21:26:24.233Z,3.15
2023-02-19T21:28:51.762Z,2.83
2023-02-19T21:31:18.807Z,2.30
2023-02-19T21:33:45.433Z,3.72
2023-02-19T21:36:12.507Z,3.05
2023-02-19T21:38:39.200Z,2.72
2023-02-19T21:41:05.851Z,2.45
2023-02-19T21:43:32.362Z,2.67
2023-02-19T21:45:59.009Z,2.47
2023-02-19T21:48:25.445Z,2.78
2023-02-19T21:50:52.018Z,4.47
2023-02-19T21:53:19.156Z,3.15
2023-02-19T21:55:57.825Z,4.47
2023-02-19T21:58:25.351Z,3.17
2023-02-19T22:00:53.774Z,3.63
2023-02-19T22:03:20.475Z,4.65
2023-02-19T22:05:47.081Z,3.58
2023-02-19T22:08:15.543Z,6.13
2023-02-19T22:10:42.595Z,5.32
2023-02-19T22:13:09.897Z,4.45
2023-02-19T22:15:36.705Z,3.70
2023-02-19T22:18:03.523Z,4.28
2023-02-19T22:20:30.089Z,5.25
2023-02-19T22:22:56.548Z,6.05
2023-02-19T22:25:23.140Z,7.53
2023-02-19T22:27:49.790Z,6.57
2023-02-19T22:30:16.558Z,8.10
2023-02-19T22:32:43.123Z,7.18
2023-02-19T22:35:09.670Z,7.63
2023-02-19T22:37:36.214Z,7.78
2023-02-19T22:40:02.706Z,9.45
2023-02-19T22:42:29.426Z,9.93
2023-02-19T22:44:56.003Z,8.13
2023-02-19T22:47:22.537Z,7.75
2023-02-19T22:49:49.098Z,8.20
2023-02-19T22:52:15.726Z,6.72
2023-02-19T22:54:42.296Z,7.97
2023-02-19T22:57:08.722Z,7.28
2023-02-19T22:59:35.219Z,9.75
2023-02-19T23:02:01.769Z,9.32
2023-02-19T23:04:28.394Z,6.88
2023-02-19T23:06:54.930Z,6.28
2023-02-19T23:09:24.894Z,7.53
2023-02-19T23:11:52.198Z,5.93
2023-02-19T23:14:20.625Z,6.35
2023-02-19T23:16:47.140Z,5.90
2023-02-19T23:19:15.590Z,6.20
2023-02-19T23:21:43.927Z,6.97
2023-02-19T23:24:11.176Z,5.90
2023-02-19T23:26:45.580Z,6.93
2023-02-19T23:29:15.536Z,4.90
2023-02-19T23:31:42.270Z,5.30
2023-02-19T23:34:08.980Z,6.82
2023-02-19T23:36:42.718Z,5.88
2023-02-19T23:39:11.382Z,5.07
2023-02-19T23:41:38.346Z,5.70
2023-02-19T23:44:05.496Z,5.97
2023-02-19T23:46:33.938Z,5.97
2023-02-19T23:49:00.414Z,6.78
2023-02-19T23:51:26.940Z,7.57
2023-02-19T23:53:53.387Z,7.50
2023-02-19T23:56:28.232Z,5.45
2023-02-19T23:58:55.007Z,8.90
